Time;durP1;ratioP1;P1;durP2;ratioP2;P2;SDS_P1;SDS_P2;PMS_P1;PMS_P2;Temp;Humidity;BMP_temperature;BMP_pressure;BME280_temperature;BME280_humidity;BME280_pressure;Samples;Min_cycle;Max_cycle;Signal;HPM_P1;HPM_P2
2021/06/29 00:02:18;;;;;;;5.50;3.93;;;;;;;18.86;71.20;100259.28;1815631;77;21786;-78
2021/06/29 00:04:46;;;;;;;5.30;4.23;;;;;;;18.84;71.37;100258.01;1781741;78;21039;-77
2021/06/29 00:07:13;;;;;;;6.27;3.63;;;;;;;18.81;71.53;100258.08;1802503;79;21225;-77
2021/06/29 00:09:40;;;;;;;5.60;4.37;;;;;;;18.80;71.67;100261.13;1790710;79;21173;-77
2021/06/29 00:12:07;;;;;;;7.33;4.60;;;;;;;18.78;71.71;100261.42;1787237;78;21098;-77
2021/06/29 00:14:34;;;;;;;4.57;4.00;;;;;;;18.78;71.78;100260.07;1790668;79;21121;-77
2021/06/29 00:17:00;;;;;;;5.97;4.07;;;;;;;18.76;71.86;100259.61;1784373;79;21090;-77
2021/06/29 00:19:27;;;;;;;6.43;4.17;;;;;;;18.74;71.91;100253.16;1782852;78;21109;-77
2021/06/29 00:21:53;;;;;;;5.57;4.10;;;;;;;18.72;71.98;100249.98;1788650;79;21711;-77
2021/06/29 00:24:20;;;;;;;8.03;4.40;;;;;;;18.71;72.18;100251.61;1788677;78;21050;-77
2021/06/29 00:26:46;;;;;;;6.47;4.10;;;;;;;18.70;72.29;100252.73;1796281;78;21083;-76
2021/06/29 00:29:13;;;;;;;4.83;4.23;;;;;;;18.67;72.44;100262.84;1797929;78;21085;-77
2021/06/29 00:31:40;;;;;;;5.80;4.60;;;;;;;18.63;72.55;100270.00;1791801;78;21035;-75
2021/06/29 00:34:07;;;;;;;6.63;4.73;;;;;;;18.57;72.71;100264.51;1805428;78;21035;-76
2021/06/29 00:36:33;;;;;;;5.53;4.50;;;;;;;18.51;72.98;100267.91;1790453;78;22168;-76
2021/06/29 00:39:00;;;;;;;6.57;4.43;;;;;;;18.45;73.42;100264.56;1804170;78;21109;-76
2021/06/29 00:41:27;;;;;;;5.40;4.27;;;;;;;18.42;73.75;100265.19;1804296;78;21096;-76
2021/06/29 00:43:53;;;;;;;5.27;4.17;;;;;;;18.40;74.02;100266.09;1791442;78;21031;-76
2021/06/29 00:46:20;;;;;;;5.27;4.37;;;;;;;18.39;74.25;100265.03;1787212;80;21078;-76
2021/06/29 00:48:47;;;;;;;6.27;4.43;;;;;;;18.39;74.36;100263.12;1799670;78;21439;-76
2021/06/29 00:51:15;;;;;;;5.77;4.53;;;;;;;18.40;74.46;100260.67;1807024;78;21167;-76
2021/06/29 00:53:43;;;;;;;5.40;4.37;;;;;;;18.43;74.52;100262.75;1794419;78;21052;-77
2021/06/29 00:56:13;;;;;;;6.57;4.50;;;;;;;18.46;74.54;100264.03;1791243;79;21073;-76
2021/06/29 00:58:38;;;;;;;7.77;4.73;;;;;;;18.48;74.52;100259.88;1783240;79;21086;-76
2021/06/29 01:01:05;;;;;;;5.80;4.40;;;;;;;18.50;74.51;100259.02;1801351;78;21873;-76
2021/06/29 01:03:32;;;;;;;6.83;4.33;;;;;;;18.49;74.50;100262.84;1809265;79;21129;-76
2021/06/29 01:05:58;;;;;;;5.50;4.37;;;;;;;18.49;74.39;100266.89;1801893;78;21081;-77
2021/06/29 01:08:25;;;;;;;5.90;4.30;;;;;;;18.48;74.41;100271.25;1796181;79;21074;-77
2021/06/29 01:10:52;;;;;;;5.53;4.80;;;;;;;18.48;74.50;100271.25;1804155;78;21059;-77
2021/06/29 01:13:44;;;;;;;7.60;4.90;;;;;;;18.49;74.56;100271.48;1804092;78;21358;-77
2021/06/29 01:16:11;;;;;;;5.65;4.22;;;;;;;18.49;74.64;100269.60;1806212;78;21120;-76
2021/06/29 01:18:39;;;;;;;6.17;4.80;;;;;;;18.53;74.72;100278.44;1789474;78;21766;-77
2021/06/29 01:21:06;;;;;;;6.80;4.70;;;;;;;18.55;74.66;100276.98;1797475;78;21929;-77
2021/06/29 01:23:36;;;;;;;5.37;4.50;;;;;;;18.57;74.59;100285.59;1809422;78;21086;-78
2021/06/29 01:26:16;;;;;;;5.00;4.03;;;;;;;18.56;74.60;100288.59;1803886;78;21170;-77
2021/06/29 01:29:05;;;;;;;5.60;4.60;;;;;;;18.54;74.59;100290.27;1793323;78;21823;-76
2021/06/29 01:31:34;;;;;;;5.80;4.37;;;;;;;18.51;74.72;100287.64;1802014;78;21189;-78
2021/06/29 01:34:01;;;;;;;6.23;4.23;;;;;;;18.53;74.87;100288.69;1802867;78;21053;-77
2021/06/29 01:36:36;;;;;;;7.00;4.50;;;;;;;18.53;74.89;100277.08;1795538;78;20975;-77
2021/06/29 01:39:06;;;;;;;5.70;4.70;;;;;;;18.53;74.92;100275.17;1795083;78;21046;-76
2021/06/29 01:41:34;;;;;;;6.22;4.80;;;;;;;18.53;74.86;100278.44;1777735;78;21060;-77
2021/06/29 01:46:30;;;;;;;5.77;4.60;;;;;;;18.58;74.83;100289.08;1783117;78;21035;-76
2021/06/29 01:48:56;;;;;;;6.47;4.53;;;;;;;18.59;74.90;100284.72;1793757;78;21311;-76
2021/06/29 01:51:23;;;;;;;6.10;4.50;;;;;;;18.60;75.00;100286.31;1785984;78;21600;-77
2021/06/29 01:53:51;;;;;;;6.07;5.00;;;;;;;18.57;75.16;100290.20;1785308;79;21090;-75
2021/06/29 01:56:25;;;;;;;5.27;4.60;;;;;;;18.56;75.21;100288.59;1793013;78;21019;-77
2021/06/29 01:58:54;;;;;;;5.37;4.73;;;;;;;18.55;75.31;100290.50;1805174;78;21066;-76
2021/06/29 02:01:17;;;;;;;7.23;4.87;;;;;;;18.53;75.36;100286.55;1794019;78;21082;-76
2021/06/29 02:03:44;;;;;;;6.43;5.10;;;;;;;18.50;75.49;100289.33;1792958;78;21312;-77
2021/06/29 02:06:10;;;;;;;5.60;4.67;;;;;;;18.50;75.53;100286.62;1777790;78;21133;-76
2021/06/29 02:08:40;;;;;;;7.33;5.30;;;;;;;18.51;75.39;100276.82;1793376;78;21026;-77
2021/06/29 02:11:06;;;;;;;8.57;4.90;;;;;;;18.53;75.32;100279.22;1782694;79;21121;-79
2021/06/29 02:13:33;;;;;;;5.93;4.80;;;;;;;18.56;75.32;100282.66;1795715;79;21053;-77
2021/06/29 02:16:00;;;;;;;5.87;5.20;;;;;;;18.60;75.19;100281.45;1795763;78;21018;-77
2021/06/29 02:18:28;;;;;;;7.00;4.90;;;;;;;18.63;75.03;100276.77;1799947;78;21064;-78
2021/06/29 02:20:54;;;;;;;7.10;5.50;;;;;;;18.67;74.95;100272.30;1789697;78;22425;-77
2021/06/29 02:23:21;;;;;;;7.23;5.10;;;;;;;18.68;74.62;100268.48;1795346;78;21055;-77
2021/06/29 02:25:48;;;;;;;6.10;5.17;;;;;;;18.69;74.28;100278.17;1787425;79;21027;-76
2021/06/29 02:28:14;;;;;;;6.53;5.03;;;;;;;18.69;74.36;100274.13;1796411;78;21050;-77
2021/06/29 02:30:41;;;;;;;5.70;4.73;;;;;;;18.71;74.45;100276.75;1780885;78;21532;-78
2021/06/29 02:33:09;;;;;;;6.17;4.50;;;;;;;18.74;74.37;100280.20;1794268;78;21617;-77
2021/06/29 02:35:37;;;;;;;8.33;4.87;;;;;;;18.76;74.25;100279.91;1795870;78;21106;-77
2021/06/29 02:38:04;;;;;;;6.63;5.20;;;;;;;18.81;74.29;100272.17;1798132;78;21034;-76
2021/06/29 02:40:31;;;;;;;5.53;4.70;;;;;;;18.87;74.31;100277.67;1796760;78;20958;-77
2021/06/29 02:42:58;;;;;;;6.93;4.53;;;;;;;18.91;74.16;100279.41;1802907;78;21103;-77
2021/06/29 02:45:25;;;;;;;6.67;5.30;;;;;;;18.94;74.02;100280.13;1788394;78;21011;-76
2021/06/29 02:47:52;;;;;;;6.63;4.93;;;;;;;19.01;74.02;100281.55;1801717;78;21153;-77
2021/06/29 02:50:19;;;;;;;6.37;4.63;;;;;;;19.09;73.96;100276.14;1782756;78;21026;-78
2021/06/29 02:52:46;;;;;;;6.87;4.80;;;;;;;19.18;73.86;100270.69;1796445;79;21054;-77
2021/06/29 02:55:14;;;;;;;6.37;4.47;;;;;;;19.27;73.66;100267.41;1797020;79;21758;-77
2021/06/29 02:57:42;;;;;;;7.47;4.17;;;;;;;19.37;73.46;100266.27;1797294;78;21054;-77
2021/06/29 03:00:13;;;;;;;11.40;4.97;;;;;;;19.47;73.17;100269.20;1785697;79;21149;-76
2021/06/29 03:02:39;;;;;;;5.85;4.28;;;;;;;19.54;72.82;100278.97;1785594;78;21066;-77
2021/06/29 03:05:08;;;;;;;7.00;4.90;;;;;;;19.62;72.59;100274.89;1794479;79;21555;-79
2021/06/29 03:07:34;;;;;;;5.20;4.60;;;;;;;19.67;72.25;100276.64;1784879;78;22310;-78
2021/06/29 03:10:01;;;;;;;6.17;4.80;;;;;;;19.70;71.88;100273.85;1808096;79;21031;-78
2021/06/29 03:12:29;;;;;;;6.43;4.90;;;;;;;19.73;71.61;100275.34;1806820;78;21541;-78
2021/06/29 03:14:57;;;;;;;5.00;4.47;;;;;;;19.75;71.59;100281.25;1796498;78;21023;-80
2021/06/29 03:17:24;;;;;;;6.07;4.40;;;;;;;19.74;71.61;100287.77;1790945;78;21089;-78
2021/06/29 03:19:51;;;;;;;6.37;4.70;;;;;;;19.72;71.67;100287.87;1796843;78;21813;-78
2021/06/29 03:22:18;;;;;;;6.73;4.60;;;;;;;19.66;71.66;100296.73;1792549;79;21074;-77
2021/06/29 03:24:44;;;;;;;5.67;4.60;;;;;;;19.61;71.52;100298.23;1797042;79;20994;-77
2021/06/29 03:27:12;;;;;;;6.80;4.93;;;;;;;19.61;71.69;100309.06;1803775;78;21097;-78
2021/06/29 03:29:39;;;;;;;6.17;4.60;;;;;;;19.62;71.73;100305.25;1791917;78;21557;-78
2021/06/29 03:32:08;;;;;;;5.73;4.47;;;;;;;19.66;71.61;100304.86;1810531;78;21121;-78
2021/06/29 03:34:36;;;;;;;6.10;4.33;;;;;;;19.70;71.30;100304.45;1793592;78;21100;-77
2021/06/29 03:37:07;;;;;;;5.67;4.80;;;;;;;19.74;71.19;100301.88;1797276;78;21038;-77
2021/06/29 03:39:38;;;;;;;5.03;4.37;;;;;;;19.74;71.11;100303.23;1794291;78;21023;-78
2021/06/29 03:42:05;;;;;;;5.83;4.57;;;;;;;19.78;71.13;100303.64;1807070;79;21014;-76
2021/06/29 03:44:32;;;;;;;6.90;4.20;;;;;;;19.83;70.99;100302.08;1800531;78;21749;-76
2021/06/29 03:46:59;;;;;;;7.93;5.17;;;;;;;19.88;71.02;100307.34;1791870;79;21057;-77
2021/06/29 03:49:26;;;;;;;7.50;4.60;;;;;;;19.91;70.80;100301.27;1804883;78;21019;-75
2021/06/29 03:51:53;;;;;;;6.43;5.07;;;;;;;19.96;70.91;100304.34;1808285;79;20958;-77
2021/06/29 03:54:21;;;;;;;7.03;4.70;;;;;;;20.01;71.06;100307.45;1798195;79;21627;-76
2021/06/29 03:56:47;;;;;;;6.77;4.70;;;;;;;20.05;70.93;100307.03;1796607;78;21108;-77
2021/06/29 03:59:14;;;;;;;5.87;4.70;;;;;;;20.08;70.57;100304.45;1791618;78;20977;-77
2021/06/29 04:01:41;;;;;;;5.60;4.87;;;;;;;20.10;70.39;100306.29;1791465;78;21066;-77
2021/06/29 04:04:09;;;;;;;6.97;4.90;;;;;;;20.15;69.99;100302.58;1787728;78;21022;-76
2021/06/29 04:06:37;;;;;;;8.77;5.50;;;;;;;20.20;69.96;100304.30;1810112;77;20987;-76
2021/06/29 04:09:08;;;;;;;6.43;5.20;;;;;;;20.27;69.97;100316.78;1824454;78;21114;-78
2021/06/29 04:11:35;;;;;;;6.42;5.25;;;;;;;20.35;69.92;100310.52;1792432;78;21825;-78
2021/06/29 04:14:02;;;;;;;7.47;5.40;;;;;;;20.42;69.66;100315.43;1807206;78;21198;-78
2021/06/29 04:16:28;;;;;;;6.70;5.10;;;;;;;20.47;69.46;100314.69;1789044;78;21129;-77
2021/06/29 04:18:55;;;;;;;7.43;4.80;;;;;;;20.53;69.23;100315.30;1780081;78;21034;-76
2021/06/29 04:21:21;;;;;;;8.10;4.97;;;;;;;20.56;68.82;100322.21;1798198;78;21098;-77
2021/06/29 04:23:48;;;;;;;5.80;4.90;;;;;;;20.57;68.63;100318.39;1807592;79;21003;-77
2021/06/29 04:26:18;;;;;;;6.93;5.13;;;;;;;20.54;68.68;100311.48;1796408;78;21102;-78
2021/06/29 04:28:45;;;;;;;5.65;5.05;;;;;;;20.51;69.03;100319.70;1809244;78;21503;-76
2021/06/29 04:31:13;;;;;;;6.87;5.13;;;;;;;20.55;68.50;100311.70;1797548;78;21034;-78
2021/06/29 04:33:39;;;;;;;7.03;5.23;;;;;;;20.59;68.28;100312.63;1784934;78;21110;-77
2021/06/29 04:36:06;;;;;;;6.77;5.20;;;;;;;20.65;68.15;100307.23;1794278;78;21085;-77
2021/06/29 04:38:32;;;;;;;9.03;5.27;;;;;;;20.74;68.04;100309.90;1795591;78;21070;-77
2021/06/29 04:40:59;;;;;;;6.10;4.83;;;;;;;20.84;68.09;100306.78;1784353;78;20972;-77
2021/06/29 04:43:26;;;;;;;7.63;5.07;;;;;;;20.94;68.15;100306.94;1787474;79;21015;-77
2021/06/29 04:45:52;;;;;;;7.53;4.80;;;;;;;20.99;67.80;100308.08;1803576;78;21118;-76
2021/06/29 04:48:19;;;;;;;5.33;4.67;;;;;;;20.99;67.75;100311.61;1794156;78;21033;-77
2021/06/29 04:50:45;;;;;;;6.30;4.73;;;;;;;21.00;67.72;100315.12;1804611;78;21078;-77
2021/06/29 04:53:12;;;;;;;7.80;5.17;;;;;;;21.00;67.51;100314.55;1790464;78;21031;-77
2021/06/29 04:55:38;;;;;;;7.43;5.60;;;;;;;21.00;67.68;100319.98;1788666;77;21042;-78
2021/06/29 04:58:05;;;;;;;6.77;5.53;;;;;;;21.01;67.85;100311.27;1797777;78;21106;-77
2021/06/29 05:00:31;;;;;;;5.53;5.00;;;;;;;21.03;67.60;100318.53;1804583;79;21029;-78
2021/06/29 05:02:58;;;;;;;6.67;4.97;;;;;;;21.05;67.60;100312.19;1782380;78;21545;-77
2021/06/29 05:05:25;;;;;;;5.97;4.87;;;;;;;21.13;67.70;100303.17;1791069;78;21026;-78
2021/06/29 05:07:54;;;;;;;5.17;4.63;;;;;;;21.25;67.21;100304.55;1795808;78;21091;-76
2021/06/29 05:10:20;;;;;;;7.90;4.90;;;;;;;21.35;67.36;100309.38;1790059;78;21815;-77
2021/06/29 05:12:48;;;;;;;6.23;4.83;;;;;;;21.42;66.94;100303.64;1804347;78;21617;-77
2021/06/29 05:15:15;;;;;;;9.53;4.90;;;;;;;21.52;66.66;100302.42;1796841;78;22555;-76
2021/06/29 05:17:42;;;;;;;6.57;4.73;;;;;;;21.58;66.76;100301.05;1802394;78;21672;-77
2021/06/29 05:20:10;;;;;;;7.20;4.90;;;;;;;21.68;66.59;100308.76;1783959;79;21011;-76
2021/06/29 05:22:36;;;;;;;7.77;4.87;;;;;;;21.75;66.05;100303.58;1791121;78;21103;-77
2021/06/29 05:25:04;;;;;;;6.87;4.80;;;;;;;21.78;65.60;100308.34;1785216;78;21565;-77
2021/06/29 05:27:31;;;;;;;6.50;4.70;;;;;;;21.83;65.67;100306.53;1797822;78;21039;-76
2021/06/29 05:29:58;;;;;;;6.33;5.10;;;;;;;21.88;65.56;100311.19;1784836;78;21639;-76
2021/06/29 05:32:24;;;;;;;8.07;5.53;;;;;;;21.91;65.11;100312.41;1780394;79;21078;-75
2021/06/29 05:34:51;;;;;;;7.33;5.40;;;;;;;21.92;65.18;100307.22;1792702;78;21168;-77
2021/06/29 05:37:17;;;;;;;7.50;5.00;;;;;;;21.99;64.89;100303.37;1793568;78;21052;-76
2021/06/29 05:39:44;;;;;;;6.40;5.20;;;;;;;22.12;64.77;100300.88;1804291;79;21041;-75
2021/06/29 05:42:11;;;;;;;5.60;4.93;;;;;;;22.25;64.35;100303.05;1792175;78;21117;-75
2021/06/29 05:44:38;;;;;;;6.97;5.20;;;;;;;22.34;63.89;100296.92;1810548;78;20996;-75
2021/06/29 05:47:08;;;;;;;5.67;4.70;;;;;;;22.47;63.65;100298.48;1796173;78;21077;-77
2021/06/29 05:49:33;;;;;;;7.00;5.13;;;;;;;22.57;63.41;100295.04;1801996;78;21085;-77
2021/06/29 05:52:00;;;;;;;7.43;4.87;;;;;;;22.68;63.11;100294.80;1804009;78;21019;-77
2021/06/29 05:54:27;;;;;;;7.37;5.40;;;;;;;22.74;62.37;100300.23;1799035;78;21078;-75
2021/06/29 05:56:53;;;;;;;5.80;4.57;;;;;;;22.83;61.93;100295.98;1792078;78;21180;-75
2021/06/29 05:59:20;;;;;;;5.57;4.60;;;;;;;22.89;61.76;100300.05;1789004;79;21318;-76
2021/06/29 06:01:46;;;;;;;7.83;5.20;;;;;;;22.88;60.94;100299.84;1786681;78;21063;-76
2021/06/29 06:04:13;;;;;;;6.30;4.97;;;;;;;22.84;61.25;100303.04;1798254;78;20999;-75
2021/06/29 06:06:39;;;;;;;6.47;4.63;;;;;;;22.87;61.77;100300.41;1805326;78;21090;-76
2021/06/29 06:09:06;;;;;;;7.23;5.23;;;;;;;22.93;61.37;100305.05;1797065;78;21501;-76
2021/06/29 06:11:33;;;;;;;8.87;5.10;;;;;;;22.95;61.14;100297.34;1799732;78;21473;-76
2021/06/29 06:13:59;;;;;;;8.70;5.10;;;;;;;22.98;60.32;100302.67;1802332;78;21083;-76
2021/06/29 06:16:26;;;;;;;13.80;5.10;;;;;;;23.00;60.08;100295.75;1806911;78;21036;-76
2021/06/29 06:18:52;;;;;;;7.17;5.53;;;;;;;23.02;60.32;100299.47;1792297;78;21058;-76
2021/06/29 06:21:19;;;;;;;7.13;5.70;;;;;;;23.03;60.36;100297.75;1800583;78;21474;-76
2021/06/29 06:23:45;;;;;;;6.77;5.47;;;;;;;23.07;60.69;100300.59;1789344;78;21103;-76
2021/06/29 06:26:12;;;;;;;8.27;5.70;;;;;;;23.13;60.32;100299.18;1790454;78;21174;-76
2021/06/29 06:28:38;;;;;;;7.87;5.57;;;;;;;23.13;60.58;100297.27;1800318;79;21050;-76
2021/06/29 06:31:05;;;;;;;6.93;5.53;;;;;;;23.13;60.42;100297.27;1793384;78;21679;-76
2021/06/29 06:33:32;;;;;;;7.00;5.27;;;;;;;23.13;60.89;100304.09;1791940;78;21070;-76
2021/06/29 06:35:58;;;;;;;8.70;5.30;;;;;;;23.11;60.52;100302.84;1785394;79;21075;-76
2021/06/29 06:38:25;;;;;;;7.90;5.00;;;;;;;23.08;59.61;100305.69;1799493;78;21081;-75
2021/06/29 06:40:51;;;;;;;5.50;4.90;;;;;;;23.07;60.08;100307.41;1791902;78;21038;-76
2021/06/29 06:43:17;;;;;;;8.03;5.10;;;;;;;23.14;60.01;100302.94;1800096;78;21431;-76
2021/06/29 06:45:44;;;;;;;6.77;4.60;;;;;;;23.27;59.45;100302.31;1823414;77;20999;-77
2021/06/29 06:48:11;;;;;;;6.67;4.93;;;;;;;23.44;59.18;100305.85;1807115;77;21110;-76
2021/06/29 06:50:37;;;;;;;7.23;5.40;;;;;;;23.56;58.86;100298.40;1805853;78;21070;-77
2021/06/29 06:53:04;;;;;;;8.07;4.83;;;;;;;23.66;59.00;100303.91;1813829;78;22164;-75
2021/06/29 06:55:31;;;;;;;5.60;5.03;;;;;;;23.82;59.07;100302.00;1797039;78;21020;-74
2021/06/29 06:57:57;;;;;;;8.70;4.83;;;;;;;24.03;58.77;100300.34;1789121;78;21150;-74
2021/06/29 07:00:26;;;;;;;6.10;4.60;;;;;;;24.21;58.93;100299.95;1796562;79;22021;-75
2021/06/29 07:02:54;;;;;;;7.87;4.73;;;;;;;24.38;58.50;100294.67;1793316;79;21031;-75
2021/06/29 07:05:21;;;;;;;7.80;4.80;;;;;;;24.48;57.64;100298.23;1789453;79;21023;-74
2021/06/29 07:07:48;;;;;;;8.03;5.10;;;;;;;24.59;57.44;100295.76;1788627;78;21035;-75
2021/06/29 07:10:15;;;;;;;9.50;5.20;;;;;;;24.68;56.62;100294.95;1799002;78;21066;-74
2021/06/29 07:12:41;;;;;;;6.70;5.00;;;;;;;24.71;56.20;100291.50;1802719;78;21199;-75
2021/06/29 07:15:08;;;;;;;6.93;4.53;;;;;;;24.76;55.67;100293.38;1794190;78;21074;-75
2021/06/29 07:17:36;;;;;;;4.30;3.63;;;;;;;24.82;55.35;100297.20;1795665;78;21050;-75
2021/06/29 07:20:05;;;;;;;6.63;3.80;;;;;;;24.88;53.87;100296.55;1792865;79;22164;-76
2021/06/29 07:22:33;;;;;;;7.93;4.37;;;;;;;24.96;52.88;100298.84;1794897;78;21098;-74
2021/06/29 07:25:00;;;;;;;7.40;4.10;;;;;;;25.04;52.68;100295.91;1789780;78;21509;-76
2021/06/29 07:27:26;;;;;;;6.67;4.70;;;;;;;25.18;52.73;100300.09;1801428;78;21066;-75
2021/06/29 07:29:53;;;;;;;7.57;4.53;;;;;;;25.32;52.46;100303.07;1795266;79;21074;-74
2021/06/29 07:32:20;;;;;;;7.03;4.67;;;;;;;25.46;52.31;100305.27;1776487;79;21096;-74
2021/06/29 07:34:46;;;;;;;4.43;3.63;;;;;;;25.58;51.64;100301.58;1795959;78;21191;-74
2021/06/29 07:37:13;;;;;;;4.97;4.33;;;;;;;25.63;51.13;100302.07;1789431;78;21537;-76
2021/06/29 07:39:40;;;;;;;5.40;4.30;;;;;;;25.59;51.49;100303.94;1798642;78;21483;-74
2021/06/29 07:42:07;;;;;;;6.23;3.87;;;;;;;25.62;51.54;100299.69;1801893;79;21094;-76
2021/06/29 07:44:35;;;;;;;5.73;4.40;;;;;;;25.76;50.61;100288.97;1788910;78;21034;-75
2021/06/29 07:47:02;;;;;;;7.53;4.80;;;;;;;25.88;51.00;100294.28;1806408;79;21035;-74
2021/06/29 07:49:29;;;;;;;5.13;4.30;;;;;;;26.05;50.21;100292.97;1795104;78;21077;-74
2021/06/29 07:51:55;;;;;;;5.60;3.73;;;;;;;26.13;50.01;100293.89;1802275;79;21061;-73
2021/06/29 07:54:22;;;;;;;4.53;3.80;;;;;;;26.23;49.35;100291.09;1786068;78;21375;-76
2021/06/29 07:56:49;;;;;;;4.20;3.50;;;;;;;26.32;47.98;100290.23;1801787;78;21019;-77
2021/06/29 07:59:16;;;;;;;5.77;4.03;;;;;;;26.39;48.55;100287.02;1793601;78;21074;-75
2021/06/29 08:01:42;;;;;;;4.90;3.70;;;;;;;26.48;49.79;100284.61;1795016;78;21065;-75
2021/06/29 08:04:09;;;;;;;4.37;3.70;;;;;;;26.68;50.31;100280.55;1790970;79;21034;-76
2021/06/29 08:06:36;;;;;;;4.70;3.50;;;;;;;26.93;49.00;100280.86;1748581;79;21038;-75
2021/06/29 08:09:04;;;;;;;4.83;3.33;;;;;;;27.06;47.50;100278.06;1783599;78;22090;-75
2021/06/29 08:11:30;;;;;;;4.50;3.10;;;;;;;27.20;46.16;100280.19;1792177;78;21050;-75
2021/06/29 08:13:57;;;;;;;4.07;2.77;;;;;;;27.38;44.86;100285.05;1793920;78;21896;-78
2021/06/29 08:16:25;;;;;;;4.07;2.90;;;;;;;27.45;42.34;100279.06;1795994;78;21498;-76
2021/06/29 08:18:54;;;;;;;4.07;2.57;;;;;;;27.34;42.61;100272.67;1790077;78;21238;-75
2021/06/29 08:21:21;;;;;;;4.43;2.60;;;;;;;27.28;42.01;100270.87;1802020;77;21085;-76
2021/06/29 08:23:48;;;;;;;3.60;2.50;;;;;;;27.24;40.64;100267.30;1793361;78;21584;-77
2021/06/29 08:26:15;;;;;;;4.53;2.70;;;;;;;27.23;40.53;100269.05;1799433;78;21101;-78
2021/06/29 08:28:42;;;;;;;5.47;2.67;;;;;;;27.34;40.18;100267.19;1804569;78;21525;-74
2021/06/29 08:31:12;;;;;;;3.43;2.57;;;;;;;27.49;39.16;100265.38;1803760;78;21093;-73
2021/06/29 08:33:39;;;;;;;3.95;2.37;;;;;;;27.57;39.19;100258.21;1797061;78;21030;-72
2021/06/29 08:36:07;;;;;;;4.20;3.00;;;;;;;27.55;40.15;100253.67;1794718;78;21203;-72
2021/06/29 08:38:35;;;;;;;3.70;2.60;;;;;;;27.52;40.73;100254.44;1791394;78;21513;-73
2021/06/29 08:41:02;;;;;;;3.43;2.60;;;;;;;27.54;40.28;100254.85;1800339;78;21129;-75
2021/06/29 08:43:29;;;;;;;3.93;2.50;;;;;;;27.70;40.04;100256.52;1795490;78;22142;-73
2021/06/29 08:45:56;;;;;;;6.03;2.37;;;;;;;27.88;38.20;100269.83;1792469;78;21086;-73
2021/06/29 08:48:23;;;;;;;2.80;2.20;;;;;;;27.96;38.21;100266.54;1786486;78;21050;-74
2021/06/29 08:50:51;;;;;;;3.70;2.33;;;;;;;28.13;38.76;100276.06;1793897;78;21813;-74
2021/06/29 08:53:18;;;;;;;3.10;2.50;;;;;;;28.14;37.28;100275.69;1796882;78;21034;-72
2021/06/29 08:55:50;;;;;;;4.50;2.57;;;;;;;28.16;37.57;100282.94;1798621;78;20971;-74
2021/06/29 08:58:21;;;;;;;2.77;2.00;;;;;;;28.03;37.80;100274.81;1794296;78;22155;-73
2021/06/29 09:00:49;;;;;;;4.50;2.53;;;;;;;27.97;39.04;100267.55;1799998;78;21015;-75
2021/06/29 09:03:16;;;;;;;3.70;2.50;;;;;;;28.06;38.58;100274.84;1805456;78;21098;-74
2021/06/29 09:05:47;;;;;;;3.83;2.30;;;;;;;28.16;37.97;100262.34;1794391;78;21043;-73
2021/06/29 09:08:18;;;;;;;2.40;1.83;;;;;;;28.16;38.07;100262.34;1780693;78;21566;-73
2021/06/29 09:11:09;;;;;;;3.93;2.30;;;;;;;28.04;38.31;100262.69;1805511;78;21045;-75
2021/06/29 09:13:38;;;;;;;2.83;2.10;;;;;;;27.69;38.85;100254.95;1796211;79;21010;-73
2021/06/29 09:16:06;;;;;;;4.20;2.17;;;;;;;27.19;39.23;100262.17;1799659;78;21964;-76
2021/06/29 09:18:35;;;;;;;4.67;2.23;;;;;;;26.89;39.80;100256.74;1778285;79;21011;-74
2021/06/29 09:21:09;;;;;;;5.17;2.30;;;;;;;26.74;40.66;100257.15;1788420;78;21059;-75
2021/06/29 09:23:41;;;;;;;3.37;2.30;;;;;;;26.71;40.12;100251.05;1789850;79;21105;-74
2021/06/29 09:26:12;;;;;;;3.70;1.83;;;;;;;26.80;40.19;100247.44;1781812;78;20999;-74
2021/06/29 09:28:52;;;;;;;3.10;2.00;;;;;;;27.03;39.32;100242.39;1777872;80;21099;-74
2021/06/29 09:31:25;;;;;;;4.00;2.10;;;;;;;27.21;39.03;100234.36;1786989;78;21046;-73
2021/06/29 09:33:59;;;;;;;3.90;2.20;;;;;;;27.29;38.65;100224.46;1792844;78;21129;-74
2021/06/29 09:36:29;;;;;;;4.07;2.10;;;;;;;27.28;38.63;100217.41;1782943;78;21070;-74
2021/06/29 09:38:58;;;;;;;2.80;2.00;;;;;;;27.27;38.98;100213.66;1781127;78;21034;-74
2021/06/29 09:41:30;;;;;;;2.70;2.07;;;;;;;27.23;39.62;100210.10;1793900;78;21450;-73
2021/06/29 09:44:07;;;;;;;5.10;2.00;;;;;;;27.22;38.94;100200.31;1790356;79;20954;-74
2021/06/29 09:46:36;;;;;;;3.50;2.30;;;;;;;27.29;40.23;100203.89;1792025;78;21305;-74
2021/06/29 09:49:12;;;;;;;4.33;2.50;;;;;;;27.54;39.91;100199.17;1779024;79;21061;-75
2021/06/29 09:51:39;;;;;;;4.73;2.60;;;;;;;27.79;40.33;100200.17;1787553;78;21038;-74
2021/06/29 09:54:10;;;;;;;4.67;2.50;;;;;;;27.91;40.43;100199.66;1775409;80;21126;-76
2021/06/29 09:56:42;;;;;;;4.20;2.90;;;;;;;27.89;40.61;100202.00;1804231;78;21026;-77
2021/06/29 09:59:24;;;;;;;4.87;2.60;;;;;;;27.82;40.44;100199.41;1781435;79;20987;-75
2021/06/29 10:02:06;;;;;;;5.07;2.83;;;;;;;27.74;40.76;100199.70;1789541;78;21103;-74
2021/06/29 10:04:33;;;;;;;3.80;2.90;;;;;;;27.66;41.06;100190.65;1764569;78;21026;-74
2021/06/29 10:07:17;;;;;;;4.10;2.80;;;;;;;27.53;41.18;100194.86;1760191;79;21664;-76
2021/06/29 10:09:44;;;;;;;3.00;2.20;;;;;;;27.38;41.37;100194.55;1806389;78;21042;-73
2021/06/29 10:12:11;;;;;;;5.00;2.60;;;;;;;27.45;41.03;100192.66;1792211;78;21024;-75
2021/06/29 10:14:39;;;;;;;3.80;2.30;;;;;;;27.64;40.93;100190.27;1782748;78;21066;-75
2021/06/29 10:17:10;;;;;;;2.97;2.10;;;;;;;27.80;37.23;100204.48;1782707;78;21047;-74
2021/06/29 10:20:10;;;;;;;3.10;2.10;;;;;;;27.93;36.12;100187.70;1791084;78;21134;-75
2021/06/29 10:22:18;;;;;;;3.35;2.17;;;;;;;28.08;36.89;100192.70;1782418;78;21683;-77
2021/06/29 10:24:47;;;;;;;3.40;2.20;;;;;;;28.31;35.26;100193.19;1788162;78;21132;-74
2021/06/29 10:27:13;;;;;;;2.73;2.00;;;;;;;28.45;35.30;100190.52;1791121;78;21018;-75
2021/06/29 10:29:40;;;;;;;3.77;2.20;;;;;;;28.56;34.81;100183.67;1801888;78;20979;-76
2021/06/29 10:32:11;;;;;;;3.80;2.30;;;;;;;28.58;35.65;100187.42;1784115;78;21088;-77
2021/06/29 10:34:39;;;;;;;3.83;2.17;;;;;;;28.60;34.26;100188.61;1803868;78;21176;-77
2021/06/29 10:37:06;;;;;;;3.50;2.43;;;;;;;28.47;36.13;100181.31;1780864;79;21175;-74
2021/06/29 10:39:34;;;;;;;3.40;2.40;;;;;;;28.24;37.34;100179.44;1796295;78;20979;-76
2021/06/29 10:42:06;;;;;;;3.90;2.60;;;;;;;28.05;37.96;100184.05;1788749;78;21063;-76
2021/06/29 10:44:45;;;;;;;5.10;3.33;;;;;;;27.86;37.23;100180.22;1794626;78;21149;-78
2021/06/29 10:47:30;;;;;;;4.87;2.67;;;;;;;27.62;36.96;100193.17;1802224;78;21078;-74
2021/06/29 10:49:59;;;;;;;5.33;2.93;;;;;;;27.42;37.01;100199.50;1785581;79;21031;-74
2021/06/29 10:52:33;;;;;;;3.20;2.30;;;;;;;27.24;37.03;100201.48;1806328;78;21588;-77
2021/06/29 10:55:05;;;;;;;3.13;2.30;;;;;;;27.21;37.33;100202.83;1794268;78;21010;-75
2021/06/29 10:57:42;;;;;;;2.98;2.17;;;;;;;27.12;37.34;100209.98;1802538;79;21173;-76
2021/06/29 11:00:20;;;;;;;4.23;2.50;;;;;;;26.98;37.83;100211.20;1799294;78;21062;-75
2021/06/29 11:03:01;;;;;;;4.43;2.47;;;;;;;26.92;38.90;100208.59;1779893;78;21086;-76
2021/06/29 11:05:40;;;;;;;6.45;2.33;;;;;;;26.92;38.89;100211.33;1797320;78;21061;-75
2021/06/29 11:08:15;;;;;;;4.53;2.20;;;;;;;26.83;37.95;100217.91;1789843;78;21101;-79
2021/06/29 11:10:48;;;;;;;3.03;2.10;;;;;;;26.69;37.85;100219.70;1790884;78;21526;-74
2021/06/29 11:13:17;;;;;;;2.90;2.40;;;;;;;26.62;38.31;100216.30;1788154;78;21070;-75
2021/06/29 11:15:54;;;;;;;2.83;2.20;;;;;;;26.64;38.82;100211.24;1801510;77;21147;-76
2021/06/29 11:18:40;;;;;;;3.43;2.10;;;;;;;26.79;39.17;100217.09;1785687;79;21050;-75
2021/06/29 11:21:09;;;;;;;4.30;2.40;;;;;;;26.90;38.08;100224.05;1809130;78;21767;-74
2021/06/29 11:23:37;;;;;;;3.97;2.70;;;;;;;26.89;38.97;100223.86;1794985;78;21559;-75
2021/06/29 11:26:16;;;;;;;3.30;2.40;;;;;;;26.84;39.58;100225.55;1798183;78;21502;-75
2021/06/29 11:28:50;;;;;;;4.80;2.40;;;;;;;26.79;39.40;100223.16;1792952;78;22094;-74
2021/06/29 11:31:24;;;;;;;7.30;2.73;;;;;;;26.66;40.61;100224.00;1805622;78;21082;-76
2021/06/29 11:33:59;;;;;;;4.43;2.60;;;;;;;26.50;40.72;100211.09;1801570;78;21036;-74